createdAt,value
2023-05-14T00:00:51.396Z,11.70
2023-05-14T00:03:18.204Z,11.73
2023-05-14T00:05:44.804Z,11.76
2023-05-14T00:08:11.354Z,11.80
2023-05-14T00:10:37.910Z,11.86
2023-05-14T00:13:04.433Z,11.90
2023-05-14T00:15:32.895Z,11.95
2023-05-14T00:18:00.809Z,11.96
2023-05-14T00:20:27.431Z,11.97
2023-05-14T00:22:53.931Z,12.03
2023-05-14T00:25:20.474Z,12.04
2023-05-14T00:27:47.023Z,12.04
2023-05-14T00:30:13.744Z,12.03
2023-05-14T00:32:40.399Z,12.00
2023-05-14T00:35:07.145Z,11.96
2023-05-14T00:37:33.684Z,11.90
2023-05-14T00:40:00.352Z,11.78
2023-05-14T00:42:27.261Z,11.74
2023-05-14T00:44:53.852Z,11.79
2023-05-14T00:47:21.185Z,11.85
2023-05-14T00:49:47.892Z,11.93
2023-05-14T00:52:16.570Z,11.99
2023-05-14T00:54:43.239Z,11.91
2023-05-14T00:57:09.916Z,11.85
2023-05-14T00:59:36.543Z,11.84
2023-05-14T01:02:03.268Z,11.88
2023-05-14T01:04:30.074Z,11.96
2023-05-14T01:07:11.904Z,12.02
2023-05-14T01:10:13.057Z,12.01
2023-05-14T01:13:13.145Z,11.96
2023-05-14T01:15:40.037Z,11.90
2023-05-14T01:18:10.045Z,11.87
2023-05-14T01:20:36.844Z,11.92
2023-05-14T01:23:03.919Z,11.90
2023-05-14T01:25:31.700Z,11.89
2023-05-14T01:28:06.693Z,11.88
2023-05-14T01:30:40.229Z,11.86
2023-05-14T01:33:13.318Z,11.86
2023-05-14T01:35:41.274Z,11.71
2023-05-14T01:38:11.374Z,11.70
2023-05-14T01:40:38.578Z,11.67
2023-05-14T01:43:05.855Z,11.66
2023-05-14T01:45:35.921Z,11.65
2023-05-14T01:48:02.678Z,11.67
2023-05-14T01:50:29.401Z,11.69
2023-05-14T01:52:56.870Z,11.72
2023-05-14T01:55:24.642Z,11.67
2023-05-14T01:57:51.954Z,11.64
2023-05-14T02:00:19.037Z,11.59
2023-05-14T02:02:45.605Z,11.57
2023-05-14T02:05:13.171Z,11.52
2023-05-14T02:07:39.854Z,11.42
2023-05-14T02:10:07.182Z,11.39
2023-05-14T02:12:33.961Z,11.32
2023-05-14T02:15:00.564Z,11.26
2023-05-14T02:17:27.308Z,11.20
2023-05-14T02:19:53.849Z,11.13
2023-05-14T02:22:20.420Z,11.12
2023-05-14T02:24:47.060Z,11.05
2023-05-14T02:27:13.665Z,11.02
2023-05-14T02:29:40.208Z,10.98
2023-05-14T02:32:07.221Z,10.94
2023-05-14T02:34:34.553Z,10.94
2023-05-14T02:37:01.254Z,10.92
2023-05-14T02:39:28.000Z,10.87
2023-05-14T02:41:54.826Z,10.85
2023-05-14T02:44:21.404Z,10.77
2023-05-14T02:46:48.169Z,10.77
2023-05-14T02:49:14.863Z,10.77
2023-05-14T02:51:41.459Z,10.73
2023-05-14T02:54:08.175Z,10.61
2023-05-14T02:56:34.743Z,10.59
2023-05-14T02:59:01.289Z,10.50
2023-05-14T03:01:28.281Z,10.50
2023-05-14T03:03:55.515Z,10.50
2023-05-14T03:06:22.262Z,10.46
2023-05-14T03:08:48.866Z,10.34
2023-05-14T03:11:15.473Z,10.36
2023-05-14T03:13:42.069Z,10.19
2023-05-14T03:16:08.641Z,10.14
2023-05-14T03:18:36.848Z,10.11
2023-05-14T03:21:04.056Z,10.08
2023-05-14T03:23:32.121Z,10.05
2023-05-14T03:25:58.934Z,10.09
2023-05-14T03:28:26.077Z,10.16
2023-05-14T03:30:52.800Z,10.14
2023-05-14T03:33:19.743Z,10.19
2023-05-14T03:35:46.321Z,10.14
2023-05-14T03:38:12.847Z,10.16
2023-05-14T03:40:39.506Z,10.19
2023-05-14T03:43:06.235Z,10.22
2023-05-14T03:45:33.337Z,10.25
2023-05-14T03:48:00.051Z,10.26
2023-05-14T03:50:27.029Z,10.24
2023-05-14T03:52:53.674Z,10.17
2023-05-14T03:55:20.514Z,10.10
2023-05-14T03:57:48.676Z,10.03
2023-05-14T04:00:15.804Z,10.04
2023-05-14T04:02:42.663Z,10.05
2023-05-14T04:05:09.657Z,10.08
2023-05-14T04:07:36.612Z,10.10
2023-05-14T04:10:04.727Z,10.08
2023-05-14T04:12:31.582Z,10.18
2023-05-14T04:14:58.814Z,10.27
2023-05-14T04:17:25.951Z,10.26
2023-05-14T04:19:53.193Z,10.38
2023-05-14T04:22:19.888Z,10.34
2023-05-14T04:24:46.540Z,10.27
2023-05-14T04:27:20.187Z,10.30
2023-05-14T04:29:47.316Z,10.38
2023-05-14T04:32:14.874Z,10.50
2023-05-14T04:34:41.554Z,10.62
2023-05-14T04:37:08.257Z,10.72
2023-05-14T04:39:34.869Z,10.84
2023-05-14T04:42:01.465Z,10.98
2023-05-14T04:44:28.163Z,11.09
2023-05-14T04:46:55.516Z,11.19
2023-05-14T04:49:22.190Z,11.30
2023-05-14T04:51:49.506Z,11.38
2023-05-14T04:54:16.222Z,11.49
2023-05-14T04:56:42.827Z,11.64
2023-05-14T04:59:09.401Z,11.77
2023-05-14T05:01:36.354Z,11.91
2023-05-14T05:04:03.081Z,11.92
2023-05-14T05:06:29.968Z,12.05
2023-05-14T05:08:56.501Z,12.13
2023-05-14T05:11:23.213Z,12.15
2023-05-14T05:13:50.800Z,12.15
2023-05-14T05:16:17.577Z,12.28
2023-05-14T05:18:45.776Z,12.37
2023-05-14T05:21:12.474Z,12.47
2023-05-14T05:23:39.138Z,12.48
2023-05-14T05:26:05.988Z,12.67
2023-05-14T05:28:32.558Z,12.81
2023-05-14T05:30:59.262Z,12.93
2023-05-14T05:33:25.881Z,12.73
2023-05-14T05:35:52.581Z,12.67
2023-05-14T05:38:19.337Z,12.80
2023-05-14T05:40:46.107Z,13.02
2023-05-14T05:43:13.986Z,13.32
2023-05-14T05:45:41.059Z,13.46
2023-05-14T05:48:07.961Z,13.35
2023-05-14T05:50:34.649Z,13.36
2023-05-14T05:53:01.303Z,13.14
2023-05-14T05:55:28.967Z,13.15
2023-05-14T05:57:56.017Z,13.22
2023-05-14T06:00:23.255Z,13.12
2023-05-14T06:02:50.111Z,13.21
2023-05-14T06:05:16.833Z,13.30
2023-05-14T06:07:43.427Z,13.47
2023-05-14T06:10:10.230Z,13.73
2023-05-14T06:12:36.882Z,14.16
2023-05-14T06:15:03.858Z,14.67
2023-05-14T06:17:30.615Z,15.46
2023-05-14T06:19:57.218Z,16.19
2023-05-14T06:22:23.752Z,16.71
2023-05-14T06:24:50.469Z,16.79
2023-05-14T06:27:17.113Z,17.16
2023-05-14T06:29:43.798Z,17.11
2023-05-14T06:32:10.671Z,16.89
2023-05-14T06:34:37.461Z,16.83
2023-05-14T06:37:04.321Z,17.12
2023-05-14T06:39:31.051Z,17.75
2023-05-14T06:41:57.580Z,17.51
2023-05-14T06:44:24.314Z,17.62
2023-05-14T06:46:50.994Z,17.86
2023-05-14T06:49:18.165Z,17.91
2023-05-14T06:51:45.114Z,18.03
2023-05-14T06:54:11.834Z,18.27
2023-05-14T06:56:38.594Z,19.13
2023-05-14T06:59:05.278Z,19.63
2023-05-14T07:01:31.876Z,19.85
2023-05-14T07:03:58.544Z,20.24
2023-05-14T07:06:25.117Z,20.56
2023-05-14T07:08:51.773Z,20.61
2023-05-14T07:11:18.346Z,20.66
2023-05-14T07:13:44.915Z,20.64
2023-05-14T07:16:11.544Z,20.48
2023-05-14T07:18:38.441Z,19.93
2023-05-14T07:21:09.008Z,19.60
2023-05-14T07:23:38.532Z,20.13
2023-05-14T07:26:07.978Z,20.59
2023-05-14T07:28:35.096Z,20.30
2023-05-14T07:31:02.287Z,20.30
2023-05-14T07:33:28.940Z,20.07
2023-05-14T07:35:55.553Z,20.47
2023-05-14T07:38:22.386Z,20.71
2023-05-14T07:40:48.962Z,20.64
2023-05-14T07:43:15.591Z,20.88
2023-05-14T07:45:42.298Z,21.07
2023-05-14T07:48:09.008Z,21.08
2023-05-14T07:50:35.884Z,21.10
2023-05-14T07:53:02.538Z,20.70
2023-05-14T07:55:29.249Z,20.86
2023-05-14T07:57:56.258Z,20.99
2023-05-14T08:00:23.170Z,20.58
2023-05-14T08:02:50.481Z,21.09
2023-05-14T08:05:18.086Z,21.37
2023-05-14T08:07:44.840Z,21.48
2023-05-14T08:10:11.763Z,21.79
2023-05-14T08:12:39.150Z,21.43
2023-05-14T08:15:07.904Z,21.22
2023-05-14T08:17:34.541Z,21.03
2023-05-14T08:20:01.695Z,21.25
2023-05-14T08:22:28.399Z,21.90
2023-05-14T08:24:55.080Z,21.62
2023-05-14T08:27:21.749Z,22.06
2023-05-14T08:29:48.577Z,22.66
2023-05-14T08:32:22.790Z,22.69
2023-05-14T08:34:51.972Z,22.31
2023-05-14T08:37:18.905Z,21.45
2023-05-14T08:39:45.498Z,21.77
2023-05-14T08:42:13.895Z,22.13
2023-05-14T08:44:49.129Z,22.21
2023-05-14T08:47:18.122Z,22.05
2023-05-14T08:49:47.799Z,22.39
2023-05-14T08:52:16.483Z,22.53
2023-05-14T08:54:43.545Z,21.58
2023-05-14T08:57:10.770Z,21.81
2023-05-14T08:59:38.171Z,21.92
2023-05-14T09:02:06.924Z,21.74
2023-05-14T09:04:34.754Z,21.97
2023-05-14T09:07:02.852Z,21.95
2023-05-14T09:09:29.953Z,23.16
2023-05-14T09:11:56.566Z,23.27
2023-05-14T09:14:24.192Z,23.27
2023-05-14T09:16:51.653Z,22.55
2023-05-14T09:19:19.897Z,22.90
2023-05-14T09:21:48.229Z,22.80
2023-05-14T09:24:25.507Z,23.12
2023-05-14T09:26:54.525Z,23.57
2023-05-14T09:29:21.172Z,23.85
2023-05-14T09:31:50.767Z,23.80
2023-05-14T09:34:28.162Z,23.56
2023-05-14T09:36:59.945Z,24.04
2023-05-14T09:39:27.572Z,23.15
2023-05-14T09:41:55.411Z,22.26
2023-05-14T09:44:23.214Z,22.23
2023-05-14T09:46:51.015Z,22.13
2023-05-14T09:49:18.127Z,21.35
2023-05-14T09:51:45.061Z,22.44
2023-05-14T09:54:11.620Z,22.20
2023-05-14T09:56:39.715Z,21.35
2023-05-14T09:59:06.596Z,21.74
2023-05-14T10:01:33.679Z,22.23
2023-05-14T10:04:01.882Z,21.52
2023-05-14T10:06:33.344Z,21.70
2023-05-14T10:09:10.180Z,21.21
2023-05-14T10:11:39.091Z,20.70
2023-05-14T10:14:20.859Z,20.38
2023-05-14T10:16:50.575Z,19.98
2023-05-14T10:19:18.947Z,19.96
2023-05-14T10:21:49.410Z,20.01
2023-05-14T10:24:16.423Z,20.98
2023-05-14T10:26:43.402Z,22.70
2023-05-14T10:29:10.449Z,22.86
2023-05-14T10:31:49.813Z,22.96
2023-05-14T10:34:40.777Z,22.42
2023-05-14T10:37:12.664Z,21.89
2023-05-14T10:39:59.148Z,20.98
2023-05-14T10:42:40.538Z,20.43
2023-05-14T10:45:09.313Z,21.44
2023-05-14T10:47:37.893Z,22.14
2023-05-14T10:50:07.232Z,22.98
2023-05-14T10:52:35.291Z,23.62
2023-05-14T10:55:04.261Z,23.67
2023-05-14T10:57:32.437Z,23.65
2023-05-14T11:00:01.854Z,22.84
2023-05-14T11:02:39.513Z,22.36
2023-05-14T11:05:09.215Z,21.82
2023-05-14T11:07:41.532Z,21.61
2023-05-14T11:10:10.099Z,23.05
2023-05-14T11:12:39.671Z,23.76
2023-05-14T11:15:20.693Z,22.97
2023-05-14T11:17:48.729Z,22.36
2023-05-14T11:20:16.857Z,22.03
2023-05-14T11:22:44.914Z,21.71
2023-05-14T11:25:15.149Z,21.36
2023-05-14T11:27:44.074Z,21.20
2023-05-14T11:30:19.338Z,21.50
2023-05-14T11:32:47.568Z,22.52
2023-05-14T11:35:15.628Z,22.87
2023-05-14T11:37:42.952Z,23.12
2023-05-14T11:40:19.191Z,23.03
2023-05-14T11:42:46.093Z,22.89
2023-05-14T11:45:14.136Z,22.89
2023-05-14T11:47:42.053Z,22.91
2023-05-14T11:50:09.728Z,22.51
2023-05-14T11:52:41.480Z,22.05
2023-05-14T11:55:12.691Z,21.89
2023-05-14T11:57:39.749Z,21.52
2023-05-14T12:00:09.401Z,21.73
2023-05-14T12:02:36.580Z,22.31
2023-05-14T12:05:03.578Z,23.79
2023-05-14T12:07:30.917Z,23.92
2023-05-14T12:10:01.581Z,24.38
2023-05-14T12:12:28.202Z,23.90
2023-05-14T12:14:54.738Z,23.34
2023-05-14T12:17:23.094Z,22.75
2023-05-14T12:19:51.957Z,22.36
2023-05-14T12:22:20.777Z,22.76
2023-05-14T12:24:54.855Z,22.37
2023-05-14T12:27:26.417Z,22.42
2023-05-14T12:30:12.870Z,22.39
2023-05-14T12:32:42.968Z,23.07
2023-05-14T12:35:10.321Z,23.28
2023-05-14T12:37:37.773Z,23.47
2023-05-14T12:40:09.369Z,22.96
2023-05-14T12:42:36.639Z,23.16
2023-05-14T12:45:07.480Z,23.48
2023-05-14T12:47:34.227Z,23.23
2023-05-14T12:50:01.110Z,23.20
2023-05-14T12:52:37.842Z,22.74
2023-05-14T12:55:09.955Z,22.48
2023-05-14T12:57:39.080Z,22.64
2023-05-14T13:00:07.953Z,23.00
2023-05-14T13:02:42.955Z,22.81
2023-05-14T13:05:11.305Z,22.64
2023-05-14T13:07:38.463Z,22.13
2023-05-14T13:10:06.115Z,22.13
2023-05-14T13:12:33.177Z,21.98
2023-05-14T13:14:59.907Z,22.06
2023-05-14T13:17:26.892Z,22.26
2023-05-14T13:19:53.658Z,21.67
2023-05-14T13:22:20.227Z,21.81
2023-05-14T13:24:46.950Z,21.44
2023-05-14T13:27:13.506Z,21.24
2023-05-14T13:29:40.353Z,21.18
2023-05-14T13:32:07.559Z,21.47
2023-05-14T13:34:36.033Z,21.68
2023-05-14T13:37:02.734Z,21.98
2023-05-14T13:39:37.678Z,22.19
2023-05-14T13:42:09.423Z,22.41
2023-05-14T13:44:37.111Z,22.52
2023-05-14T13:47:10.574Z,22.70
2023-05-14T13:49:39.117Z,22.69
2023-05-14T13:52:06.788Z,22.93
2023-05-14T13:54:33.461Z,22.73
2023-05-14T13:57:00.485Z,22.55
2023-05-14T13:59:28.130Z,22.38
2023-05-14T14:01:54.971Z,22.00
2023-05-14T14:04:22.386Z,21.96
2023-05-14T14:06:49.517Z,22.06
2023-05-14T14:09:19.793Z,21.95
2023-05-14T14:11:46.917Z,21.96
2023-05-14T14:14:16.136Z,21.96
2023-05-14T14:16:43.024Z,21.94
2023-05-14T14:19:10.073Z,21.59
2023-05-14T14:21:39.819Z,21.51
2023-05-14T14:24:06.982Z,21.64
2023-05-14T14:26:34.155Z,21.73
2023-05-14T14:29:01.032Z,21.72
2023-05-14T14:31:27.873Z,21.63
2023-05-14T14:33:54.591Z,21.34
2023-05-14T14:36:21.189Z,21.04
2023-05-14T14:38:48.022Z,20.83
2023-05-14T14:41:14.645Z,20.73
2023-05-14T14:43:41.786Z,20.58
2023-05-14T14:46:11.386Z,20.61
2023-05-14T14:48:38.720Z,20.63
2023-05-14T14:51:09.215Z,20.59
2023-05-14T14:53:37.353Z,20.49
2023-05-14T14:56:04.797Z,20.56
2023-05-14T14:58:31.670Z,20.79
2023-05-14T15:00:58.787Z,20.51
2023-05-14T15:03:26.003Z,20.68
2023-05-14T15:05:54.062Z,20.62
2023-05-14T15:08:35.577Z,20.69
2023-05-14T15:11:02.602Z,21.03
2023-05-14T15:13:29.720Z,21.00
2023-05-14T15:15:56.904Z,20.74
2023-05-14T15:18:23.645Z,20.40
2023-05-14T15:20:50.880Z,20.39
2023-05-14T15:23:17.776Z,20.02
2023-05-14T15:25:45.621Z,20.14
2023-05-14T15:28:12.426Z,19.94
2023-05-14T15:30:39.096Z,20.04
2023-05-14T15:33:08.973Z,19.79
2023-05-14T15:35:39.181Z,19.59
2023-05-14T15:38:07.148Z,19.45
2023-05-14T15:40:35.376Z,19.40
2023-05-14T15:43:02.379Z,19.39
2023-05-14T15:45:31.564Z,19.28
2023-05-14T15:47:58.359Z,19.05
2023-05-14T15:50:26.749Z,19.00
2023-05-14T15:52:53.900Z,19.01
2023-05-14T15:55:20.983Z,19.04
2023-05-14T15:57:47.897Z,19.06
2023-05-14T16:00:14.955Z,19.07
2023-05-14T16:02:41.588Z,19.10
2023-05-14T16:05:08.762Z,18.79
2023-05-14T16:07:36.202Z,18.82
2023-05-14T16:10:03.615Z,18.80
2023-05-14T16:12:30.541Z,18.85
2023-05-14T16:14:57.742Z,18.74
2023-05-14T16:17:24.714Z,18.65
2023-05-14T16:19:52.886Z,18.51
2023-05-14T16:22:21.316Z,18.45
2023-05-14T16:24:47.954Z,18.55
2023-05-14T16:27:14.656Z,18.48
2023-05-14T16:29:41.249Z,18.37
2023-05-14T16:32:08.038Z,18.37
2023-05-14T16:34:34.640Z,18.32
2023-05-14T16:37:01.628Z,18.41
2023-05-14T16:39:28.309Z,18.34
2023-05-14T16:41:55.099Z,18.30
2023-05-14T16:44:21.727Z,18.39
2023-05-14T16:46:48.690Z,18.31
2023-05-14T16:49:15.452Z,18.29
2023-05-14T16:51:43.988Z,18.08
2023-05-14T16:54:10.725Z,17.96
2023-05-14T16:56:37.393Z,17.96
2023-05-14T16:59:04.044Z,17.87
2023-05-14T17:01:31.009Z,17.84
2023-05-14T17:03:57.675Z,17.64
2023-05-14T17:06:24.476Z,17.76
2023-05-14T17:08:51.283Z,17.81
2023-05-14T17:11:17.976Z,17.69
2023-05-14T17:13:44.550Z,17.73
2023-05-14T17:16:11.694Z,17.78
2023-05-14T17:18:38.445Z,17.78
2023-05-14T17:21:06.057Z,17.73
2023-05-14T17:23:32.631Z,17.79
2023-05-14T17:25:59.381Z,17.73
2023-05-14T17:28:27.071Z,17.76
2023-05-14T17:30:53.706Z,17.74
2023-05-14T17:33:21.013Z,17.64
2023-05-14T17:35:48.093Z,17.46
2023-05-14T17:38:15.133Z,17.46
2023-05-14T17:40:41.811Z,17.27
2023-05-14T17:43:20.968Z,17.14
2023-05-14T17:48:23.106Z,16.87
2023-05-14T17:50:51.974Z,16.97
2023-05-14T17:53:18.783Z,16.79
2023-05-14T17:55:45.619Z,16.75
2023-05-14T17:58:14.480Z,16.66
2023-05-14T18:00:41.635Z,16.57
2023-05-14T18:03:08.387Z,16.48
2023-05-14T18:05:35.644Z,16.46
2023-05-14T18:08:02.404Z,16.32
2023-05-14T18:10:31.886Z,16.13
2023-05-14T18:13:02.717Z,16.01
2023-05-14T18:15:35.309Z,15.98
2023-05-14T18:18:02.487Z,15.93
2023-05-14T18:20:33.514Z,15.89
2023-05-14T18:23:02.608Z,15.81
2023-05-14T18:25:31.654Z,15.94
2023-05-14T18:27:58.473Z,15.93
2023-05-14T18:30:25.061Z,15.84
2023-05-14T18:32:52.176Z,15.83
2023-05-14T18:35:18.978Z,15.82
2023-05-14T18:37:46.206Z,15.69
2023-05-14T18:40:16.880Z,15.52
2023-05-14T18:42:45.114Z,15.45
2023-05-14T18:45:13.824Z,15.34
2023-05-14T18:47:41.157Z,15.20
2023-05-14T18:50:11.243Z,15.19
2023-05-14T18:52:38.347Z,15.11
2023-05-14T18:55:05.730Z,14.96
2023-05-14T18:57:32.980Z,14.89
2023-05-14T19:00:03.212Z,14.83
2023-05-14T19:02:30.320Z,14.62
2023-05-14T19:04:57.299Z,14.52
2023-05-14T19:07:23.992Z,14.57
2023-05-14T19:09:50.711Z,14.50
2023-05-14T19:12:17.343Z,14.47
2023-05-14T19:14:44.108Z,14.31
2023-05-14T19:17:11.157Z,14.13
2023-05-14T19:19:39.424Z,14.09
2023-05-14T19:22:06.492Z,14.10
2023-05-14T19:24:33.164Z,14.08
2023-05-14T19:26:59.766Z,14.05
2023-05-14T19:29:26.528Z,14.07
2023-05-14T19:31:53.210Z,13.98
2023-05-14T19:34:20.082Z,13.80
2023-05-14T19:36:46.725Z,13.72
2023-05-14T19:39:13.520Z,13.67
2023-05-14T19:41:40.124Z,13.63
2023-05-14T19:44:06.850Z,13.54
2023-05-14T19:46:33.939Z,13.40
2023-05-14T19:49:00.821Z,13.36
2023-05-14T19:51:27.590Z,13.26
2023-05-14T19:53:54.146Z,13.09
2023-05-14T19:56:21.698Z,12.90
2023-05-14T19:58:48.290Z,12.83
2023-05-14T20:01:15.213Z,12.77
2023-05-14T20:03:41.972Z,12.64
2023-05-14T20:06:08.577Z,12.57
2023-05-14T20:08:35.236Z,12.66
2023-05-14T20:11:02.060Z,12.55
2023-05-14T20:13:31.836Z,12.34
2023-05-14T20:15:59.336Z,12.38
2023-05-14T20:18:25.972Z,12.34
2023-05-14T20:20:52.786Z,12.37
2023-05-14T20:23:20.697Z,12.37
2023-05-14T20:25:47.918Z,12.35
2023-05-14T20:28:14.611Z,12.29
2023-05-14T20:30:41.324Z,12.21
2023-05-14T20:33:08.426Z,12.09
2023-05-14T20:35:35.105Z,11.98
2023-05-14T20:38:03.639Z,11.98
2023-05-14T20:40:31.089Z,11.93
2023-05-14T20:42:57.678Z,11.94
2023-05-14T20:45:24.592Z,11.90
2023-05-14T20:47:51.309Z,11.88
2023-05-14T20:50:17.919Z,11.71
2023-05-14T20:52:44.487Z,11.62
2023-05-14T20:55:11.073Z,11.39
2023-05-14T20:57:37.784Z,11.32
2023-05-14T21:00:08.216Z,11.24
2023-05-14T21:02:35.152Z,11.17
2023-05-14T21:05:02.356Z,11.19
2023-05-14T21:07:29.111Z,11.19
2023-05-14T21:09:55.767Z,11.25
2023-05-14T21:12:22.833Z,11.17
2023-05-14T21:14:49.378Z,11.14
2023-05-14T21:17:15.930Z,11.11
2023-05-14T21:19:42.485Z,10.97
2023-05-14T21:22:09.060Z,10.89
2023-05-14T21:24:35.754Z,10.92
2023-05-14T21:27:02.335Z,10.96
2023-05-14T21:29:28.931Z,11.02
2023-05-14T21:31:56.089Z,11.00
2023-05-14T21:34:22.627Z,11.13
2023-05-14T21:36:49.322Z,11.04
2023-05-14T21:39:16.005Z,11.01
2023-05-14T21:41:42.568Z,11.00
2023-05-14T21:44:09.077Z,10.94
2023-05-14T21:46:36.048Z,11.00
2023-05-14T21:49:03.186Z,10.97
2023-05-14T21:51:29.992Z,10.98
2023-05-14T21:53:56.501Z,10.99
2023-05-14T21:56:23.922Z,11.01
2023-05-14T21:58:50.472Z,10.90
2023-05-14T22:01:16.971Z,10.81
2023-05-14T22:03:43.603Z,10.84
2023-05-14T22:06:10.295Z,10.76
2023-05-14T22:08:36.852Z,10.56
2023-05-14T22:11:03.506Z,10.55
2023-05-14T22:13:30.178Z,10.50
2023-05-14T22:16:09.138Z,10.56
2023-05-14T22:18:39.071Z,10.46
2023-05-14T22:21:06.023Z,10.35
2023-05-14T22:23:32.658Z,10.37
2023-05-14T22:25:59.249Z,10.35
2023-05-14T22:28:25.926Z,10.31
2023-05-14T22:30:52.480Z,10.26
2023-05-14T22:33:19.490Z,10.18
2023-05-14T22:35:46.174Z,10.14
2023-05-14T22:38:13.775Z,10.09
2023-05-14T22:40:40.303Z,10.14
2023-05-14T22:43:06.890Z,10.16
2023-05-14T22:45:33.549Z,10.15
2023-05-14T22:48:00.216Z,10.20
2023-05-14T22:50:26.911Z,10.26
2023-05-14T22:52:53.475Z,10.06
2023-05-14T22:55:20.064Z,10.03
2023-05-14T22:57:46.625Z,10.01
2023-05-14T23:00:13.863Z,9.88
2023-05-14T23:25:23.760Z,9.81
2023-05-14T23:27:50.449Z,9.88
2023-05-14T23:30:17.010Z,9.86
2023-05-14T23:32:43.520Z,9.81
2023-05-14T23:35:10.335Z,9.82
2023-05-14T23:37:41.774Z,9.68
2023-05-14T23:40:09.757Z,9.61
2023-05-14T23:42:36.260Z,9.53
2023-05-14T23:45:02.908Z,9.49
2023-05-14T23:47:29.701Z,9.45
2023-05-14T23:49:56.436Z,9.54
2023-05-14T23:52:23.028Z,9.56
2023-05-14T23:54:49.555Z,9.60
2023-05-14T23:57:16.182Z,9.61
2023-05-14T23:59:42.744Z,9.61
